Time;durP1;ratioP1;P1;durP2;ratioP2;P2;SDS_P1;SDS_P2;PMS_P1;PMS_P2;Temp;Humidity;BMP_temperature;BMP_pressure;BME280_temperature;BME280_humidity;BME280_pressure;Samples;Min_cycle;Max_cycle;Signal;HPM_P1;HPM_P2
2023/07/18 00:00:43;;;;;;;7.88;3.72;;;;;;;13.04;96.05;102116.03;5016420;28;20470;-82
2023/07/18 00:03:09;;;;;;;7.30;4.00;;;;;;;13.03;96.58;102115.19;5016339;28;20025;-83
2023/07/18 00:05:39;;;;;;;8.52;4.28;;;;;;;13.00;96.62;102117.13;4998741;28;20034;-81
2023/07/18 00:08:05;;;;;;;7.47;4.78;;;;;;;12.93;96.89;102117.44;5016778;28;20446;-83
2023/07/18 00:10:30;;;;;;;7.75;4.10;;;;;;;12.90;96.86;102117.59;5016712;28;20058;-83
2023/07/18 00:12:56;;;;;;;7.28;4.18;;;;;;;12.81;97.26;102117.25;5016135;28;20034;-83
2023/07/18 00:15:22;;;;;;;9.57;4.63;;;;;;;12.89;97.33;102130.66;4998372;28;20038;-81
2023/07/18 00:17:47;;;;;;;8.63;4.53;;;;;;;12.82;97.82;102129.28;4998854;28;20508;-80
2023/07/18 00:20:14;;;;;;;7.00;4.07;;;;;;;12.76;97.86;102132.19;5016279;28;20104;-83
2023/07/18 00:22:40;;;;;;;10.73;4.80;;;;;;;12.78;98.19;102128.63;5016169;28;20025;-82
2023/07/18 00:25:09;;;;;;;9.40;4.07;;;;;;;12.70;98.63;102119.56;5016064;28;20033;-81
2023/07/18 00:27:35;;;;;;;11.00;4.78;;;;;;;12.70;99.73;102119.56;5015881;28;20029;-83
2023/07/18 00:30:01;;;;;;;10.90;4.60;;;;;;;12.56;99.82;102108.13;5016318;28;20022;-80
2023/07/18 00:32:27;;;;;;;8.80;4.47;;;;;;;12.52;100.00;102116.16;5016031;28;20461;-82
2023/07/18 00:34:56;;;;;;;9.55;4.97;;;;;;;12.56;100.00;102120.25;5015759;28;20079;-81
2023/07/18 00:37:24;;;;;;;12.35;4.65;;;;;;;12.50;100.00;102120.56;5015743;28;20477;-83
2023/07/18 00:39:51;;;;;;;7.50;4.55;;;;;;;12.42;100.00;102114.94;5015890;28;20026;-82
2023/07/18 00:42:17;;;;;;;9.02;4.45;;;;;;;12.45;100.00;102125.13;5015807;28;20057;-82
2023/07/18 00:44:42;;;;;;;12.57;5.10;;;;;;;12.43;100.00;102124.38;5015829;28;20066;-83
2023/07/18 00:47:07;;;;;;;8.38;5.00;;;;;;;12.38;100.00;102123.75;5015691;28;20041;-83
2023/07/18 00:49:34;;;;;;;8.77;4.60;;;;;;;12.31;100.00;102123.25;5016230;28;20025;-83
2023/07/18 00:52:01;;;;;;;9.82;4.25;;;;;;;12.27;100.00;102132.06;5016263;28;20026;-83
2023/07/18 00:54:26;;;;;;;8.20;4.13;;;;;;;12.19;100.00;102129.00;5015587;28;20034;-83
2023/07/18 00:56:52;;;;;;;8.57;4.43;;;;;;;11.91;100.00;102083.75;4997932;28;20394;-80
2023/07/18 00:59:18;;;;;;;8.70;4.70;;;;;;;12.09;100.00;102125.19;5014347;28;20033;-83
2023/07/18 01:01:44;;;;;;;11.55;4.80;;;;;;;12.00;100.00;102105.78;5015722;28;20363;-82
2023/07/18 01:04:10;;;;;;;9.43;4.80;;;;;;;12.06;100.00;102118.41;5015484;28;20026;-82
2023/07/18 01:06:36;;;;;;;11.77;4.93;;;;;;;11.99;100.00;102106.66;5015458;28;20489;-83
2023/07/18 01:09:02;;;;;;;10.68;4.88;;;;;;;12.01;100.00;102116.06;5015199;28;20113;-82
2023/07/18 01:11:28;;;;;;;8.27;4.80;;;;;;;11.97;100.00;102117.09;5015300;28;20058;-83
2023/07/18 01:13:53;;;;;;;10.55;4.53;;;;;;;11.95;100.00;102115.50;5015053;28;20446;-83
2023/07/18 01:16:18;;;;;;;8.55;4.68;;;;;;;11.70;100.00;102071.78;4997486;28;20034;-82
2023/07/18 01:18:44;;;;;;;9.50;4.65;;;;;;;11.95;100.00;102113.75;5015026;28;20057;-83
2023/07/18 01:21:17;;;;;;;9.93;4.85;;;;;;;11.79;100.00;102097.25;5015096;28;20096;-79
2023/07/18 01:23:45;;;;;;;9.00;4.93;;;;;;;11.87;100.00;102118.44;5015025;28;20076;-82
2023/07/18 01:26:10;;;;;;;8.63;4.85;;;;;;;11.87;100.00;102107.25;5014188;28;20063;-83
2023/07/18 01:28:35;;;;;;;8.85;4.75;;;;;;;11.72;100.00;102077.75;5014830;28;20037;-81
2023/07/18 01:31:00;;;;;;;10.07;4.80;;;;;;;11.85;100.00;102099.56;5014922;28;20233;-83
2023/07/18 01:33:27;;;;;;;8.27;4.53;;;;;;;11.83;100.00;102100.56;5014920;28;20113;-82
2023/07/18 01:35:52;;;;;;;8.15;4.45;;;;;;;11.65;100.00;102073.78;5014979;28;20377;-77
2023/07/18 01:38:18;;;;;;;8.25;4.35;;;;;;;11.75;100.00;102095.72;5014929;28;20036;-82
2023/07/18 01:40:43;;;;;;;7.45;4.50;;;;;;;11.73;100.00;102097.56;5014679;28;20029;-83
2023/07/18 01:43:08;;;;;;;10.75;5.22;;;;;;;11.49;100.00;102063.31;5014754;28;20537;-82
2023/07/18 01:45:34;;;;;;;10.02;5.07;;;;;;;11.66;100.00;102085.81;5014783;28;20029;-83
2023/07/18 01:48:01;;;;;;;9.15;4.72;;;;;;;11.42;100.00;102051.59;5014638;28;20026;-83
2023/07/18 01:50:26;;;;;;;6.95;4.45;;;;;;;11.59;100.00;102094.75;5014626;28;20024;-83
2023/07/18 01:52:52;;;;;;;8.98;5.28;;;;;;;11.47;100.00;102070.31;5014417;28;20034;-82
2023/07/18 01:55:17;;;;;;;9.43;5.25;;;;;;;11.52;100.00;102083.88;5014417;28;20482;-77
2023/07/18 01:57:49;;;;;;;11.32;5.32;;;;;;;11.51;100.00;102077.03;5014513;28;20553;-78
2023/07/18 02:00:19;;;;;;;9.73;5.35;;;;;;;11.53;100.00;102076.94;5014303;28;20113;-78
2023/07/18 02:02:48;;;;;;;9.93;5.50;;;;;;;11.51;100.00;102074.44;5014581;28;20022;-81
2023/07/18 02:05:16;;;;;;;8.43;5.30;;;;;;;11.27;100.00;102042.78;4996463;28;20445;-82
2023/07/18 02:07:41;;;;;;;9.52;5.40;;;;;;;11.40;100.00;102059.41;4996693;28;20500;-82
2023/07/18 02:10:07;;;;;;;10.13;5.68;;;;;;;11.36;100.00;102046.69;5013991;28;20021;-83
2023/07/18 02:12:32;;;;;;;9.50;5.90;;;;;;;11.30;100.00;102045.22;5014152;28;20030;-83
2023/07/18 02:14:57;;;;;;;10.18;5.32;;;;;;;11.40;100.00;102066.31;5013924;28;20026;-83
2023/07/18 02:17:23;;;;;;;10.70;5.65;;;;;;;11.30;100.00;102057.31;4996497;28;20038;-82
2023/07/18 02:19:48;;;;;;;10.18;5.60;;;;;;;10.98;100.00;102005.34;4980084;28;20405;-83
2023/07/18 02:22:13;;;;;;;9.55;6.40;;;;;;;11.23;100.00;102058.53;5013949;28;20030;-82
2023/07/18 02:24:40;;;;;;;12.10;6.53;;;;;;;11.30;100.00;102065.91;5013900;28;20032;-83
2023/07/18 02:27:06;;;;;;;9.18;6.30;;;;;;;11.14;100.00;102047.69;5013639;28;20030;-80
2023/07/18 02:29:31;;;;;;;9.68;5.97;;;;;;;11.33;100.00;102073.53;5013774;28;20036;-82
2023/07/18 02:31:56;;;;;;;10.80;6.65;;;;;;;11.20;100.00;102049.97;5013800;28;20383;-82
2023/07/18 02:34:22;;;;;;;11.25;7.25;;;;;;;11.33;100.00;102073.53;5013728;28;20492;-82
2023/07/18 02:36:48;;;;;;;9.70;6.00;;;;;;;11.32;100.00;102074.47;5013652;28;20089;-82
2023/07/18 02:39:15;;;;;;;10.18;6.00;;;;;;;11.31;100.00;102071.94;5013350;28;20164;-83
2023/07/18 02:41:40;;;;;;;9.95;5.80;;;;;;;11.25;100.00;102067.88;5013655;28;20030;-82
2023/07/18 02:44:06;;;;;;;10.35;6.22;;;;;;;11.22;100.00;102054.28;4995587;28;20371;-82
2023/07/18 02:46:31;;;;;;;9.52;5.38;;;;;;;11.20;100.00;102055.16;5013736;28;20033;-83
2023/07/18 02:48:56;;;;;;;9.93;5.22;;;;;;;11.28;100.00;102065.16;5013479;28;20069;-82
2023/07/18 02:51:22;;;;;;;10.55;5.82;;;;;;;11.24;100.00;102063.63;5015467;28;20091;-82
2023/07/18 02:53:49;;;;;;;9.57;5.97;;;;;;;11.29;100.00;102066.81;5032983;28;20080;-81
2023/07/18 02:56:15;;;;;;;9.75;6.25;;;;;;;11.09;100.00;102035.88;5033187;28;20438;-82
2023/07/18 02:58:41;;;;;;;11.63;5.57;;;;;;;11.33;100.00;102057.19;5033017;28;20060;-83
2023/07/18 03:01:07;;;;;;;9.00;5.53;;;;;;;11.34;100.00;102066.63;5032743;28;20040;-81
2023/07/18 03:03:38;;;;;;;10.48;5.85;;;;;;;11.00;100.00;102018.19;5033042;28;20018;-82
2023/07/18 03:06:04;;;;;;;11.77;5.73;;;;;;;11.32;100.00;102065.88;5032843;28;20438;-82
2023/07/18 03:08:32;;;;;;;9.48;5.88;;;;;;;11.27;100.00;102063.47;5032746;28;20077;-83
2023/07/18 03:10:58;;;;;;;9.30;5.65;;;;;;;11.31;100.00;102062.44;5032945;28;20033;-83
2023/07/18 03:13:24;;;;;;;12.40;5.78;;;;;;;11.30;100.00;102062.47;5032781;28;20393;-82
2023/07/18 03:15:50;;;;;;;10.90;6.10;;;;;;;11.25;100.00;102062.72;5032843;28;20052;-83
2023/07/18 03:18:15;;;;;;;10.35;5.50;;;;;;;11.24;100.00;102067.97;5032646;28;20410;-81
2023/07/18 03:20:40;;;;;;;8.77;5.53;;;;;;;11.02;100.00;102040.50;5032498;28;20029;-82
2023/07/18 03:23:06;;;;;;;10.98;5.82;;;;;;;11.18;100.00;102072.50;5031998;28;20070;-82
2023/07/18 03:25:31;;;;;;;8.73;5.53;;;;;;;10.85;100.00;102020.59;5032678;28;20090;-82
2023/07/18 03:27:57;;;;;;;8.90;5.63;;;;;;;11.14;100.00;102045.09;5032573;28;20041;-83
2023/07/18 03:30:22;;;;;;;9.65;5.22;;;;;;;10.95;100.00;102027.91;5032542;28;20076;-83
2023/07/18 03:32:49;;;;;;;12.18;5.32;;;;;;;11.03;100.00;102046.50;5032587;28;20517;-83
2023/07/18 03:35:14;;;;;;;8.85;5.30;;;;;;;11.14;100.00;102073.53;5032333;28;20413;-82
2023/07/18 03:37:40;;;;;;;9.25;5.18;;;;;;;11.11;100.00;102057.31;5014124;28;20040;-81
2023/07/18 03:40:10;;;;;;;11.63;4.82;;;;;;;11.10;100.00;102065.97;5013932;28;20049;-82
2023/07/18 03:42:38;;;;;;;9.35;5.22;;;;;;;11.08;100.00;102068.66;5032394;28;20021;-83
2023/07/18 03:45:04;;;;;;;10.30;4.90;;;;;;;11.11;100.00;102068.53;5032411;28;20140;-83
2023/07/18 03:47:31;;;;;;;7.90;4.90;;;;;;;10.94;100.00;102042.59;5032546;28;20021;-83
2023/07/18 03:49:56;;;;;;;8.85;5.03;;;;;;;11.06;100.00;102065.28;5032198;28;20048;-81
2023/07/18 03:52:22;;;;;;;7.53;4.32;;;;;;;10.79;100.00;102022.59;5014466;28;20492;-80
2023/07/18 03:54:47;;;;;;;8.43;4.38;;;;;;;11.02;100.00;102062.94;5014642;28;20046;-83
2023/07/18 03:57:13;;;;;;;9.32;4.50;;;;;;;10.81;100.00;102026.78;5032360;28;20030;-83
2023/07/18 03:59:39;;;;;;;9.80;4.93;;;;;;;11.06;100.00;102062.72;5014437;28;20025;-82
2023/07/18 04:02:05;;;;;;;11.68;5.07;;;;;;;11.02;100.00;102056.00;5031916;23;20046;-82
2023/07/18 04:04:31;;;;;;;9.38;4.30;;;;;;;11.07;100.00;102045.44;4992843;28;20085;-81
2023/07/18 04:06:56;;;;;;;11.63;4.13;;;;;;;11.09;100.00;102054.81;4992799;28;20031;-82
2023/07/18 04:09:22;;;;;;;9.00;4.85;;;;;;;10.86;100.00;102013.66;4993012;28;20445;-79
2023/07/18 04:11:47;;;;;;;7.25;4.20;;;;;;;11.10;100.00;102042.72;4992982;28;20413;-80
2023/07/18 04:14:13;;;;;;;9.20;4.30;;;;;;;11.07;100.00;102041.13;4992874;28;20040;-82
2023/07/18 04:16:39;;;;;;;9.45;4.72;;;;;;;10.86;100.00;101999.00;4992771;28;20034;-81
2023/07/18 04:19:04;;;;;;;10.77;4.90;;;;;;;11.06;100.00;102025.69;4992506;28;20053;-83
2023/07/18 04:21:30;;;;;;;7.97;4.05;;;;;;;10.99;100.00;102004.44;4992731;28;20105;-80
2023/07/18 04:23:55;;;;;;;7.45;4.22;;;;;;;11.17;100.00;102033.78;4992779;28;20050;-83
2023/07/18 04:26:21;;;;;;;7.72;4.13;;;;;;;10.98;100.00;101994.19;4992847;28;20027;-82
2023/07/18 04:28:47;;;;;;;9.52;4.15;;;;;;;11.27;100.00;102036.78;4992855;28;20378;-82
2023/07/18 04:31:13;;;;;;;8.68;4.53;;;;;;;11.30;100.00;102026.28;4992552;28;20030;-82
2023/07/18 04:33:39;;;;;;;7.07;4.10;;;;;;;11.34;100.00;102030.41;4994916;28;20092;-82
2023/07/18 04:36:06;;;;;;;8.23;4.18;;;;;;;11.45;100.00;102026.41;4996551;28;20049;-83
2023/07/18 04:38:31;;;;;;;9.35;4.60;;;;;;;11.49;100.00;102016.75;4996130;28;20054;-82
2023/07/18 04:40:57;;;;;;;7.70;4.15;;;;;;;11.43;100.00;102004.13;4996228;28;20054;-83
2023/07/18 04:43:23;;;;;;;7.10;3.90;;;;;;;11.63;100.00;102022.13;4995900;28;20118;-80
2023/07/18 04:45:49;;;;;;;8.05;3.83;;;;;;;11.91;100.00;102031.16;4996117;28;20448;-82
2023/07/18 04:48:16;;;;;;;9.40;4.10;;;;;;;12.11;100.00;102027.56;4995991;28;20031;-82
2023/07/18 04:50:43;;;;;;;6.47;3.72;;;;;;;12.13;100.00;102008.44;4996289;28;20109;-82
2023/07/18 04:53:10;;;;;;;8.38;3.90;;;;;;;12.21;100.00;101995.97;4995796;28;20022;-83
2023/07/18 04:55:36;;;;;;;7.68;4.20;;;;;;;12.48;100.00;102034.28;4995945;28;20022;-82
2023/07/18 04:58:07;;;;;;;8.35;3.88;;;;;;;12.54;100.00;102029.63;4996031;28;20541;-82
2023/07/18 05:00:33;;;;;;;8.50;4.20;;;;;;;12.49;100.00;102005.72;4995730;28;20031;-82
2023/07/18 05:02:59;;;;;;;10.43;3.80;;;;;;;12.34;100.00;101975.44;4995638;28;20142;-84
2023/07/18 05:05:25;;;;;;;7.50;3.83;;;;;;;12.67;100.00;102029.00;4996017;28;20041;-83
2023/07/18 05:07:51;;;;;;;8.95;3.83;;;;;;;12.75;100.00;102030.25;4995587;28;20034;-83
2023/07/18 05:10:16;;;;;;;8.20;3.88;;;;;;;12.76;100.00;102025.91;4995786;28;20382;-84
2023/07/18 05:12:42;;;;;;;7.88;3.95;;;;;;;12.92;100.00;102009.47;4995695;28;20178;-83
2023/07/18 05:15:07;;;;;;;7.20;3.72;;;;;;;14.33;93.71;101960.72;4977641;28;20042;-84
2023/07/18 05:17:33;;;;;;;10.40;3.35;;;;;;;16.74;82.54;102024.88;4995547;28;20038;-83
2023/07/18 05:19:59;;;;;;;6.95;3.28;;;;;;;18.17;72.74;102010.94;4995394;28;20042;-84
2023/07/18 05:22:24;;;;;;;8.07;3.45;;;;;;;19.23;66.53;101992.19;4995253;28;20034;-83
2023/07/18 05:24:49;;;;;;;8.43;3.10;;;;;;;20.57;63.57;102029.00;4978110;28;20034;-81
2023/07/18 05:27:15;;;;;;;5.65;2.72;;;;;;;21.53;58.66;102027.50;4995185;28;20497;-81
2023/07/18 05:29:40;;;;;;;5.18;2.55;;;;;;;22.37;55.21;102027.66;4995256;28;20022;-84
2023/07/18 05:32:06;;;;;;;5.60;2.92;;;;;;;22.89;51.83;101991.94;4995266;28;20106;-85
2023/07/18 05:34:35;;;;;;;7.55;2.83;;;;;;;23.60;50.38;102030.72;4977869;28;20038;-84
2023/07/18 05:37:01;;;;;;;4.93;2.33;;;;;;;24.05;48.31;102034.97;4995318;28;20462;-85
2023/07/18 05:39:28;;;;;;;7.38;2.63;;;;;;;24.15;47.19;102019.84;4994981;28;20026;-85
2023/07/18 05:41:54;;;;;;;10.35;3.10;;;;;;;24.53;46.03;102012.47;4995264;28;20022;-83
2023/07/18 05:44:19;;;;;;;5.93;2.70;;;;;;;24.87;44.43;102015.06;4994437;28;20114;-85
2023/07/18 05:46:45;;;;;;;8.35;3.05;;;;;;;25.16;43.21;102020.75;4995130;28;20065;-84
2023/07/18 05:49:11;;;;;;;8.00;2.80;;;;;;;25.55;43.31;102011.34;4994863;28;20026;-89
2023/07/18 05:51:36;;;;;;;4.63;2.10;;;;;;;25.63;41.89;102033.34;4993324;28;20077;-85
2023/07/18 05:54:09;;;;;;;8.20;2.40;;;;;;;25.77;41.99;102033.72;5014769;28;20022;-87
2023/07/18 05:56:52;;;;;;;6.47;2.45;;;;;;;25.51;42.52;101944.75;5014243;28;20042;-89
2023/07/18 05:59:17;;;;;;;7.97;2.30;;;;;;;25.76;39.99;101937.59;4996181;28;20061;-78
2023/07/18 06:01:44;;;;;;;5.72;2.50;;;;;;;26.02;39.43;101975.25;4996276;28;20508;-85
2023/07/18 06:04:10;;;;;;;6.53;2.03;;;;;;;26.22;40.21;102027.81;5014214;28;20065;-84
2023/07/18 06:06:43;;;;;;;4.18;2.00;;;;;;;26.01;41.67;102034.50;5013953;28;20096;-80
2023/07/18 06:09:09;;;;;;;6.82;2.13;;;;;;;25.71;40.26;101951.34;4995739;28;20489;-86
2023/07/18 06:11:34;;;;;;;4.80;2.13;;;;;;;26.20;39.53;102016.56;5014024;28;20038;-86
2023/07/18 06:14:00;;;;;;;5.20;2.00;;;;;;;26.80;39.35;102029.25;5013907;28;20025;-87
2023/07/18 06:16:28;;;;;;;4.93;1.95;;;;;;;27.08;38.29;102035.75;5014021;28;20034;-87
2023/07/18 06:19:12;;;;;;;6.32;2.20;;;;;;;27.08;38.63;102035.75;5013488;28;20057;-87
2023/07/18 06:21:43;;;;;;;6.95;2.40;;;;;;;27.30;38.55;101973.09;5014067;28;20029;-87
2023/07/18 06:24:09;;;;;;;5.00;2.15;;;;;;;27.61;36.77;102009.28;5013678;28;20040;-79
2023/07/18 06:26:35;;;;;;;5.88;2.20;;;;;;;27.54;36.12;101982.69;5013935;28;20097;-86
2023/07/18 06:29:18;;;;;;;5.28;2.00;;;;;;;27.46;37.86;101974.78;5013848;28;20112;-78
2023/07/18 06:31:47;;;;;;;3.50;1.80;;;;;;;27.78;36.33;101975.50;5013927;28;20432;-82
2023/07/18 06:34:12;;;;;;;4.28;1.85;;;;;;;27.74;36.05;101935.25;5013576;28;20033;-84
2023/07/18 06:36:38;;;;;;;6.75;2.00;;;;;;;28.39;35.75;102031.94;5014601;28;20026;-85
2023/07/18 06:39:05;;;;;;;15.40;1.92;;;;;;;28.65;36.39;102029.59;5014003;28;20026;-81
2023/07/18 06:41:32;;;;;;;5.78;1.33;;;;;;;28.28;36.36;101953.53;4996371;28;20523;-81
2023/07/18 06:43:58;;;;;;;6.13;1.75;;;;;;;28.78;35.51;102029.75;5014350;28;20026;-81
2023/07/18 06:46:23;;;;;;;8.23;1.98;;;;;;;28.82;35.32;102017.75;5013709;28;20584;-81
2023/07/18 06:48:48;;;;;;;4.47;1.30;;;;;;;29.10;34.57;102028.50;5013729;28;20121;-81
2023/07/18 06:51:14;;;;;;;6.28;1.42;;;;;;;29.18;33.92;102022.22;4995919;28;20053;-81
2023/07/18 06:53:41;;;;;;;3.70;1.23;;;;;;;29.21;34.74;102026.34;5013544;28;20109;-80
2023/07/18 06:56:06;;;;;;;5.00;1.40;;;;;;;29.26;34.68;102008.78;5013343;28;20038;-80
2023/07/18 06:58:31;;;;;;;4.68;1.40;;;;;;;29.52;33.20;102015.38;5013145;28;20104;-81
2023/07/18 07:00:56;;;;;;;4.72;1.30;;;;;;;29.82;33.44;102016.81;5013496;28;20180;-80
2023/07/18 07:03:22;;;;;;;4.38;1.13;;;;;;;30.11;33.36;102021.13;5013457;28;20132;-82
2023/07/18 07:05:47;;;;;;;4.70;1.40;;;;;;;30.15;32.08;102014.38;5013172;28;20234;-83
2023/07/18 07:08:13;;;;;;;5.15;1.40;;;;;;;30.20;32.21;102005.81;5013711;28;20037;-81
2023/07/18 07:10:42;;;;;;;4.72;1.30;;;;;;;30.22;31.42;101988.59;5013207;28;20030;-81
2023/07/18 07:13:09;;;;;;;6.20;1.45;;;;;;;30.01;32.18;101993.19;5013117;28;20026;-79
2023/07/18 07:15:35;;;;;;;4.88;1.35;;;;;;;30.35;31.22;102013.66;5013369;28;20022;-81
2023/07/18 07:18:02;;;;;;;4.85;1.30;;;;;;;30.44;31.45;101983.13;5013295;28;20037;-82
2023/07/18 07:20:30;;;;;;;3.67;1.33;;;;;;;30.44;31.69;102009.78;5012945;28;20044;-81
2023/07/18 07:22:56;;;;;;;5.18;1.20;;;;;;;30.60;31.08;102005.97;5013206;28;20026;-81
2023/07/18 07:25:22;;;;;;;5.68;1.05;;;;;;;30.44;31.09;102013.28;5013037;28;20374;-82
2023/07/18 07:27:47;;;;;;;3.15;1.20;;;;;;;30.14;31.23;102001.25;5012899;28;20030;-81
2023/07/18 07:30:20;;;;;;;3.35;1.27;;;;;;;30.23;32.29;101995.56;5013140;28;20088;-81
2023/07/18 07:32:47;;;;;;;3.42;1.27;;;;;;;30.11;31.58;101965.19;5012955;28;20033;-81
2023/07/18 07:35:13;;;;;;;3.90;1.20;;;;;;;30.64;31.30;102002.72;5012809;28;20030;-81
2023/07/18 07:37:40;;;;;;;4.72;1.60;;;;;;;30.75;31.23;101970.13;5012968;28;20527;-82
2023/07/18 07:40:08;;;;;;;5.82;1.25;;;;;;;30.65;30.34;102007.03;4995010;28;20072;-82
2023/07/18 07:42:33;;;;;;;3.05;1.05;;;;;;;28.98;33.06;102002.56;5013173;28;20156;-80
2023/07/18 07:44:58;;;;;;;5.15;1.45;;;;;;;27.19;37.06;101981.47;5013235;28;20103;-80
2023/07/18 07:47:24;;;;;;;3.08;1.23;;;;;;;25.81;38.42;102011.22;5013077;28;20388;-77
2023/07/18 07:49:49;;;;;;;3.20;1.20;;;;;;;24.62;41.50;102005.41;5012865;28;20032;-83
2023/07/18 07:52:14;;;;;;;4.03;1.33;;;;;;;23.59;42.63;101978.91;5012905;28;20500;-82
2023/07/18 07:54:40;;;;;;;3.17;1.00;;;;;;;23.31;45.74;101974.72;5012714;28;20421;-80
2023/07/18 07:57:06;;;;;;;3.03;1.08;;;;;;;23.14;46.26;102011.47;5012518;28;20033;-81
2023/07/18 07:59:31;;;;;;;2.88;1.05;;;;;;;22.80;46.10;101994.59;5012861;28;20108;-82
2023/07/18 08:01:57;;;;;;;2.80;1.02;;;;;;;22.51;46.92;102005.28;5012517;28;20021;-81
2023/07/18 08:04:22;;;;;;;3.75;1.10;;;;;;;22.33;49.00;101990.28;4995160;28;20050;-81
2023/07/18 08:06:48;;;;;;;3.88;1.00;;;;;;;22.23;47.72;101999.19;5012638;28;20042;-79
2023/07/18 08:09:13;;;;;;;4.00;1.08;;;;;;;22.11;47.79;102003.78;5015880;28;20125;-80
2023/07/18 08:11:38;;;;;;;3.47;1.10;;;;;;;22.12;48.75;101994.09;5014973;28;20030;-79
2023/07/18 08:14:04;;;;;;;5.03;1.00;;;;;;;21.95;49.68;101971.97;5016901;28;20026;-81
2023/07/18 08:16:29;;;;;;;3.08;1.00;;;;;;;22.08;48.55;101995.38;5016365;28;20517;-80
2023/07/18 08:18:54;;;;;;;4.45;0.80;;;;;;;21.79;49.24;101942.81;5016558;28;20021;-80
2023/07/18 08:21:20;;;;;;;3.00;0.77;;;;;;;21.64;47.87;101940.66;5016565;28;20034;-77
2023/07/18 08:23:45;;;;;;;3.92;0.70;;;;;;;21.77;47.38;101970.06;5016387;28;20044;-80
2023/07/18 08:26:10;;;;;;;2.80;0.88;;;;;;;21.56;48.13;101929.19;4998309;28;20040;-80
2023/07/18 08:28:36;;;;;;;2.47;0.80;;;;;;;21.84;49.07;101959.00;5015983;28;20037;-81
2023/07/18 08:31:04;;;;;;;3.85;0.80;;;;;;;21.90;47.14;101992.59;5016057;28;20101;-81
2023/07/18 08:33:30;;;;;;;3.00;0.90;;;;;;;21.85;48.49;101987.78;5016402;28;20393;-79
2023/07/18 08:35:55;;;;;;;1.55;0.70;;;;;;;21.76;48.19;101943.94;5016288;28;20440;-77
2023/07/18 08:38:21;;;;;;;2.53;0.90;;;;;;;21.74;47.64;101935.38;5016170;28;20057;-81
2023/07/18 08:40:48;;;;;;;4.53;0.85;;;;;;;21.89;48.68;101952.31;5015711;28;20025;-80
2023/07/18 08:43:14;;;;;;;3.13;0.75;;;;;;;21.91;47.34;101953.00;5015873;28;20116;-73
2023/07/18 08:45:41;;;;;;;3.53;0.70;;;;;;;22.07;46.89;101972.66;5015757;28;20025;-80
2023/07/18 08:48:07;;;;;;;3.65;0.73;;;;;;;22.29;48.40;101970.47;4998369;28;20034;-80
2023/07/18 08:50:33;;;;;;;2.25;0.70;;;;;;;22.44;47.52;101972.66;5016027;28;20045;-80
2023/07/18 08:52:59;;;;;;;2.47;0.93;;;;;;;22.32;45.69;101935.19;5015928;28;20026;-80
2023/07/18 08:55:27;;;;;;;5.68;0.80;;;;;;;22.49;47.62;101949.34;4998616;28;20087;-79
2023/07/18 08:57:52;;;;;;;4.57;0.80;;;;;;;22.64;46.94;101958.41;5015427;28;20069;-80
2023/07/18 09:00:20;;;;;;;3.63;0.70;;;;;;;22.59;46.51;101958.84;5015558;28;20081;-80
2023/07/18 09:02:48;;;;;;;3.05;0.60;;;;;;;22.63;45.93;101955.94;5015623;28;20053;-81
2023/07/18 09:05:31;;;;;;;3.50;0.77;;;;;;;22.73;45.20;101960.16;5015491;28;20030;-82
2023/07/18 09:08:01;;;;;;;2.78;0.52;;;;;;;22.59;44.89;101929.88;4998052;28;20021;-78
2023/07/18 09:10:27;;;;;;;4.07;1.00;;;;;;;22.88;47.10;101948.16;5015809;28;20094;-78
2023/07/18 09:12:53;;;;;;;2.60;0.70;;;;;;;22.92;45.24;101947.88;5015069;28;20037;-78
2023/07/18 09:15:20;;;;;;;3.28;0.50;;;;;;;22.86;43.88;101950.09;5015504;28;20057;-79
2023/07/18 09:17:56;;;;;;;2.63;0.57;;;;;;;23.02;45.02;101948.63;5014886;28;20462;-78
2023/07/18 09:20:24;;;;;;;2.58;0.50;;;;;;;23.03;44.31;101935.28;5014425;28;20026;-80
2023/07/18 09:22:55;;;;;;;1.98;0.40;;;;;;;23.06;42.50;101934.97;5015295;28;20478;-75
2023/07/18 09:25:20;;;;;;;3.75;0.50;;;;;;;23.11;42.36;101938.00;4996931;28;20041;-79
2023/07/18 09:27:49;;;;;;;2.22;0.63;;;;;;;23.01;43.53;101931.13;5015123;28;20022;-79
2023/07/18 09:30:15;;;;;;;3.03;0.73;;;;;;;22.63;43.71;101904.09;5015273;28;20057;-80
2023/07/18 09:32:41;;;;;;;2.53;0.60;;;;;;;22.83;45.87;101916.16;5007157;28;20474;-79
2023/07/18 09:35:09;;;;;;;1.92;0.50;;;;;;;22.93;45.89;101916.09;5015127;28;20025;-79
2023/07/18 09:37:45;;;;;;;2.40;0.70;;;;;;;22.96;41.38;101922.88;5014954;28;20105;-79
2023/07/18 09:40:13;;;;;;;3.33;0.60;;;;;;;23.01;42.98;101920.59;4997155;28;20504;-79
2023/07/18 09:42:40;;;;;;;1.27;0.50;;;;;;;23.02;40.59;101923.09;5014626;28;20488;-78
2023/07/18 09:45:07;;;;;;;1.52;0.60;;;;;;;23.13;41.10;101930.78;5014812;28;20496;-79
2023/07/18 09:47:33;;;;;;;2.97;0.70;;;;;;;23.09;41.28;101926.75;5014661;28;20026;-78
2023/07/18 09:49:58;;;;;;;2.05;0.50;;;;;;;23.03;41.39;101930.03;5014941;28;20527;-76
2023/07/18 09:52:28;;;;;;;2.30;0.63;;;;;;;23.06;44.51;101928.88;5014868;28;20026;-79
2023/07/18 09:54:53;;;;;;;4.53;0.65;;;;;;;23.14;43.54;101923.69;5014458;28;20029;-78
2023/07/18 09:57:19;;;;;;;5.93;0.75;;;;;;;23.23;41.66;101924.59;5014576;28;20159;-78
2023/07/18 09:59:47;;;;;;;1.77;0.50;;;;;;;23.11;40.71;101889.75;5012794;28;20109;-78
2023/07/18 10:02:13;;;;;;;1.17;0.40;;;;;;;23.18;39.46;101904.78;5015156;28;20022;-78
2023/07/18 10:04:39;;;;;;;2.75;0.60;;;;;;;23.28;40.47;101925.75;5014432;28;20397;-78
2023/07/18 10:07:08;;;;;;;2.55;0.50;;;;;;;23.22;40.31;101915.03;4996682;28;20113;-78
2023/07/18 10:09:35;;;;;;;3.10;0.47;;;;;;;23.07;41.28;101878.66;5014206;28;20346;-78
2023/07/18 10:12:03;;;;;;;2.60;0.65;;;;;;;23.24;41.89;101913.88;5014307;28;20049;-77
2023/07/18 10:14:29;;;;;;;3.33;0.70;;;;;;;23.20;40.98;101904.63;5147049;23;20087;-78
2023/07/18 10:16:58;;;;;;;1.35;0.70;;;;;;;23.38;41.55;101900.13;5073946;28;20364;-77
2023/07/18 10:19:24;;;;;;;3.97;0.70;;;;;;;23.41;40.50;101885.84;5055044;28;20024;-76
2023/07/18 10:21:53;;;;;;;1.55;0.70;;;;;;;23.20;40.41;101854.53;5054408;28;20033;-78
2023/07/18 10:24:23;;;;;;;2.13;0.63;;;;;;;23.43;41.21;101900.53;5053499;28;20037;-79
2023/07/18 10:26:54;;;;;;;1.17;0.50;;;;;;;23.13;40.05;101888.59;5052304;28;20037;-78
2023/07/18 10:29:20;;;;;;;2.42;0.50;;;;;;;22.46;39.46;101823.28;5053460;28;20021;-78
2023/07/18 10:31:45;;;;;;;2.67;0.70;;;;;;;22.15;41.19;101775.47;5052223;28;20031;-78
2023/07/18 10:34:14;;;;;;;3.65;0.60;;;;;;;22.83;40.82;101871.38;5053510;28;20070;-78
2023/07/18 10:36:53;;;;;;;2.40;0.60;;;;;;;22.86;40.54;101878.16;5053466;28;20036;-78
2023/07/18 10:39:19;;;;;;;1.50;0.55;;;;;;;23.05;41.33;101880.63;5068071;28;20059;-78
2023/07/18 10:41:45;;;;;;;3.00;0.80;;;;;;;23.27;39.84;101874.03;5073335;28;20081;-79
2023/07/18 10:44:12;;;;;;;1.98;0.60;;;;;;;23.19;38.55;101829.19;5073167;28;20021;-78
2023/07/18 10:46:38;;;;;;;1.77;0.32;;;;;;;23.55;39.31;101847.53;5073080;28;20024;-78
2023/07/18 10:49:05;;;;;;;2.30;0.55;;;;;;;23.68;38.89;101840.84;5065211;28;20115;-78
2023/07/18 10:51:33;;;;;;;1.90;0.73;;;;;;;23.61;37.65;101797.66;5054269;28;20021;-78
2023/07/18 10:53:59;;;;;;;1.85;0.40;;;;;;;23.30;38.10;101730.56;5072989;28;20028;-78
2023/07/18 10:56:25;;;;;;;2.03;0.60;;;;;;;24.13;37.17;101858.19;5067111;28;20039;-73
2023/07/18 10:58:51;;;;;;;3.28;0.80;;;;;;;23.86;38.00;101835.50;5072923;28;20464;-77
2023/07/18 11:01:17;;;;;;;2.70;0.90;;;;;;;23.84;36.58;101858.59;5072865;28;20025;-76
2023/07/18 11:03:45;;;;;;;2.25;0.60;;;;;;;23.93;38.77;101856.81;5073046;28;20039;-77
2023/07/18 11:06:11;;;;;;;1.35;0.50;;;;;;;24.07;39.52;101852.72;5072664;28;20429;-75
2023/07/18 11:08:37;;;;;;;2.58;0.65;;;;;;;24.22;37.13;101845.84;5073110;28;20048;-78
2023/07/18 11:11:04;;;;;;;2.53;0.70;;;;;;;24.32;38.88;101843.94;5072995;28;20024;-77
2023/07/18 11:13:31;;;;;;;3.10;0.57;;;;;;;24.07;37.49;101826.34;5072670;28;20045;-76
2023/07/18 11:15:58;;;;;;;3.22;0.70;;;;;;;24.08;39.19;101820.88;5072842;28;20024;-78
2023/07/18 11:18:23;;;;;;;2.35;0.80;;;;;;;24.18;38.50;101842.69;5072555;28;20111;-78